KFOD

Fort Dodge Regional Airport

Fort Dodge, Iowa, USA
KFOD 201720Z 2018/2118 15006KT P6SM BKN200 FM202000 08003KT P6SM OVC150 TEMPO 2022/2024 -RA BKN090
Issued Valid From Valid To
Apr-20 @ 17:20 UTC
(an hour ago)
Apr-20 @ 18:00 UTC
(39 minutes ago)
Apr-21 @ 18:00 UTC
(in 23 hours)
Apr-20 @ 18:00 to Apr-20 @ 20:00
KFOD 201720Z 2018/2118 15006KT P6SM BKN200
Wind Visibility Clouds
150° at 6 knots Greater than 6 miles
  • Broken at 20,000' AGL
From Apr-20 @ 20:00 to Apr-21 @ 18:00
FM202000 08003KT P6SM OVC150
Wind Visibility Clouds
80° at 3 knots Greater than 6 miles
  • Overcast at 15,000' AGL
Temporary Apr-20 @ 22:00 to Apr-21 @ 00:00
TEMPO 2022/2024 -RA BKN090
Clouds Conditions
  • Broken at 9,000' AGL
  • Light Rain
KFOD 201720Z 2018/2118 15006KT P6SM BKN200 FM202000 08003KT P6SM OVC150 TEMPO 2022/2024 -RA BKN090
Issued Apr-20 @ 17:20 UTC
(an hour ago)
Valid From Apr-20 @ 18:00 UTC
(39 minutes ago)
Valid To Apr-21 @ 18:00 UTC
(in 23 hours)
Apr-20 @ 18:00 - Apr-20 @ 20:00
Wind Visibility
150° at 6 knots Greater than 6 miles
Clouds
  • Broken at 20,000' AGL
From Apr-20 @ 20:00 - Apr-21 @ 18:00
Wind Visibility
80° at 3 knots Greater than 6 miles
Clouds
  • Overcast at 15,000' AGL
Temporary Apr-20 @ 22:00 - Apr-21 @ 00:00
Clouds
  • Broken at 9,000' AGL
Conditions
  • Light Rain